Time,TemperatureF,DewpointF,PressureIn,WindDirection,WindDirectionDegrees,WindSpeedMPH,WindSpeedGustMPH,Humidity,HourlyPrecipIn,Conditions,Clouds,dailyrainin,SoftwareType,DateUTC
2013-06-04 00:02:00,53.0,-99.9,30.09,North,358,4.0,5.0,-999,-99.99,,,-99.99,,2013-06-04 07:02:00,
2013-06-04 00:13:00,53.0,-99.9,30.09,North,9,2.0,4.0,-999,-99.99,,,-99.99,,2013-06-04 07:13:00,
2013-06-04 00:22:00,52.0,-99.9,30.09,NE,42,2.0,3.0,-999,-99.99,,,-99.99,,2013-06-04 07:22:00,
2013-06-04 00:32:00,53.0,-99.9,30.09,East,92,1.0,2.0,-999,-99.99,,,-99.99,,2013-06-04 07:32:00,
2013-06-04 00:42:00,53.0,-99.9,30.09,East,79,1.0,2.0,-999,-99.99,,,-99.99,,2013-06-04 07:42:00,
2013-06-04 00:52:00,53.0,-99.9,30.09,NE,39,2.0,3.0,-999,-99.99,,,-99.99,,2013-06-04 07:52:00,
2013-06-04 01:02:00,52.0,-99.9,30.09,East,91,2.0,3.0,-999,-99.99,,,-99.99,,2013-06-04 08:02:00,
2013-06-04 01:12:00,52.0,-99.9,30.09,ENE,78,2.0,4.0,-999,-99.99,,,-99.99,,2013-06-04 08:12:00,
2013-06-04 01:22:00,52.0,-99.9,30.09,NE,38,1.0,3.0,-999,-99.99,,,-99.99,,2013-06-04 08:22:00,
2013-06-04 01:32:00,51.0,-99.9,30.09,NNE,26,1.0,3.0,-999,-99.99,,,-99.99,,2013-06-04 08:32:00,
2013-06-04 01:42:00,51.0,-99.9,30.09,NE,43,1.0,3.0,-999,-99.99,,,-99.99,,2013-06-04 08:42:00,
2013-06-04 01:52:00,52.0,-99.9,30.09,ESE,107,3.0,4.0,-999,-99.99,,,-99.99,,2013-06-04 08:52:00,
2013-06-04 02:02:00,51.0,-99.9,30.09,East,99,4.0,5.0,-999,-99.99,,,-99.99,,2013-06-04 09:02:00,
2013-06-04 02:12:00,51.0,-99.9,30.09,ESE,113,4.0,6.0,-999,-99.99,,,-99.99,,2013-06-04 09:12:00,
2013-06-04 02:22:00,51.0,-99.9,30.09,ESE,105,4.0,5.0,-999,-99.99,,,-99.99,,2013-06-04 09:22:00,
2013-06-04 02:33:00,51.0,-99.9,30.08,East,98,3.0,4.0,-999,-99.99,,,-99.99,,2013-06-04 09:33:00,
2013-06-04 02:43:00,51.0,-99.9,30.08,East,88,2.0,4.0,-999,-99.99,,,-99.99,,2013-06-04 09:43:00,
2013-06-04 02:53:00,51.0,-99.9,30.08,East,98,2.0,3.0,-999,-99.99,,,-99.99,,2013-06-04 09:53:00,
2013-06-04 03:03:00,51.0,-99.9,30.08,ESE,106,3.0,4.0,-999,-99.99,,,-99.99,,2013-06-04 10:03:00,
2013-06-04 03:12:00,51.0,-99.9,30.08,East,97,2.0,4.0,-999,-99.99,,,-99.99,,2013-06-04 10:12:00,
2013-06-04 03:23:00,50.0,-99.9,30.08,ENE,69,2.0,3.0,-999,-99.99,,,-99.99,,2013-06-04 10:23:00,
2013-06-04 03:33:00,50.0,-99.9,30.08,NE,43,2.0,3.0,-999,-99.99,,,-99.99,,2013-06-04 10:33:00,
2013-06-04 03:42:00,50.0,-99.9,30.08,North,8,3.0,3.0,-999,-99.99,,,-99.99,,2013-06-04 10:42:00,
2013-06-04 03:53:00,50.0,-99.9,30.08,North,7,3.0,3.0,-999,-99.99,,,-99.99,,2013-06-04 10:53:00,
2013-06-04 04:02:00,50.0,-99.9,30.08,West,280,1.0,2.0,-999,-99.99,,,-99.99,,2013-06-04 11:02:00,
2013-06-04 04:12:00,50.0,-99.9,30.08,SSW,197,1.0,2.0,-999,-99.99,,,-99.99,,2013-06-04 11:12:00,
2013-06-04 04:22:00,50.0,-99.9,30.08,NNE,15,2.0,3.0,-999,-99.99,,,-99.99,,2013-06-04 11:22:00,
2013-06-04 04:32:00,50.0,-99.9,30.08,North,11,2.0,3.0,-999,-99.99,,,-99.99,,2013-06-04 11:32:00,
2013-06-04 04:43:00,50.0,-99.9,30.08,ESE,105,0.0,1.0,-999,-99.99,,,-99.99,,2013-06-04 11:43:00,
2013-06-04 04:52:00,49.0,-99.9,30.08,WSW,247,0.0,3.0,-999,-99.99,,,-99.99,,2013-06-04 11:52:00,
2013-06-04 05:02:00,49.0,-99.9,30.08,South,190,1.0,2.0,-999,-99.99,,,-99.99,,2013-06-04 12:02:00,
2013-06-04 05:12:00,49.0,-99.9,30.08,South,190,1.0,2.0,-999,-99.99,,,-99.99,,2013-06-04 12:12:00,
2013-06-04 05:22:00,49.0,-99.9,30.08,NNE,27,3.0,4.0,-999,-99.99,,,-99.99,,2013-06-04 12:22:00,
2013-06-04 05:32:00,49.0,-99.9,30.08,NNE,22,1.0,4.0,-999,-99.99,,,-99.99,,2013-06-04 12:32:00,
2013-06-04 05:42:00,49.0,-99.9,30.08,East,94,3.0,4.0,-999,-99.99,,,-99.99,,2013-06-04 12:42:00,
2013-06-04 05:53:00,49.0,-99.9,30.08,East,90,4.0,5.0,-999,-99.99,,,-99.99,,2013-06-04 12:53:00,
2013-06-04 06:03:00,49.0,-99.9,30.08,SE,135,4.0,6.0,-999,-99.99,,,-99.99,,2013-06-04 13:03:00,
2013-06-04 06:12:00,49.0,-99.9,30.08,ESE,105,5.0,6.0,-999,-99.99,,,-99.99,,2013-06-04 13:12:00,
2013-06-04 06:23:00,49.0,-99.9,30.08,ESE,113,5.0,6.0,-999,-99.99,,,-99.99,,2013-06-04 13:23:00,
2013-06-04 06:32:00,49.0,-99.9,30.08,ESE,112,5.0,7.0,-999,-99.99,,,-99.99,,2013-06-04 13:32:00,
2013-06-04 06:42:00,48.0,-99.9,30.08,ESE,108,5.0,6.0,-999,-99.99,,,-99.99,,2013-06-04 13:42:00,
2013-06-04 06:52:00,49.0,-99.9,30.08,ESE,123,4.0,5.0,-999,-99.99,,,-99.99,,2013-06-04 13:52:00,
2013-06-04 07:02:00,49.0,-99.9,30.08,SE,132,5.0,6.0,-999,-99.99,,,-99.99,,2013-06-04 14:02:00,
2013-06-04 07:12:00,48.0,-99.9,30.08,ESE,105,6.0,7.0,-999,-99.99,,,-99.99,,2013-06-04 14:12:00,
2013-06-04 07:22:00,48.0,-99.9,30.09,ESE,103,6.0,7.0,-999,-99.99,,,-99.99,,2013-06-04 14:22:00,
2013-06-04 07:32:00,48.0,-99.9,30.08,SE,131,4.0,5.0,-999,-99.99,,,-99.99,,2013-06-04 14:32:00,
2013-06-04 07:43:00,49.0,-99.9,30.09,SE,138,2.0,4.0,-999,-99.99,,,-99.99,,2013-06-04 14:43:00,
2013-06-04 07:52:00,49.0,-99.9,30.09,SE,126,3.0,3.0,-999,-99.99,,,-99.99,,2013-06-04 14:52:00,
2013-06-04 08:02:00,50.0,-99.9,30.09,ESE,104,2.0,3.0,-999,-99.99,,,-99.99,,2013-06-04 15:02:00,
2013-06-04 08:12:00,51.0,-99.9,30.09,East,91,0.0,2.0,-999,-99.99,,,-99.99,,2013-06-04 15:12:00,
2013-06-04 08:22:00,52.0,-99.9,30.09,ESE,102,1.0,2.0,-999,-99.99,,,-99.99,,2013-06-04 15:22:00,
2013-06-04 08:33:00,53.0,-99.9,30.09,ESE,118,1.0,3.0,-999,-99.99,,,-99.99,,2013-06-04 15:33:00,
2013-06-04 08:42:00,53.0,-99.9,30.09,ESE,108,2.0,3.0,-999,-99.99,,,-99.99,,2013-06-04 15:42:00,
2013-06-04 08:53:00,53.0,-99.9,30.09,SE,130,2.0,2.0,-999,-99.99,,,-99.99,,2013-06-04 15:53:00,
2013-06-04 09:03:00,54.0,-99.9,30.09,East,81,0.0,2.0,-999,-99.99,,,-99.99,,2013-06-04 16:03:00,
2013-06-04 09:13:00,53.0,-99.9,30.09,SE,136,3.0,4.0,-999,-99.99,,,-99.99,,2013-06-04 16:13:00,
2013-06-04 09:23:00,54.0,-99.9,30.09,SE,135,4.0,5.0,-999,-99.99,,,-99.99,,2013-06-04 16:23:00,
2013-06-04 09:33:00,54.0,-99.9,30.09,SE,134,3.0,4.0,-999,-99.99,,,-99.99,,2013-06-04 16:33:00,
2013-06-04 09:42:00,55.0,-99.9,30.09,WNW,298,2.0,3.0,-999,-99.99,,,-99.99,,2013-06-04 16:42:00,
2013-06-04 09:53:00,55.0,-99.9,30.09,NW,307,5.0,7.0,-999,-99.99,,,-99.99,,2013-06-04 16:53:00,
2013-06-04 10:03:00,55.0,-99.9,30.09,NNW,327,8.0,11.0,-999,-99.99,,,-99.99,,2013-06-04 17:03:00,
2013-06-04 10:12:00,55.0,-99.9,30.09,NNW,329,10.0,13.0,-999,-99.99,,,-99.99,,2013-06-04 17:12:00,
2013-06-04 10:23:00,55.0,-99.9,30.09,NNW,330,11.0,13.0,-999,-99.99,,,-99.99,,2013-06-04 17:23:00,
2013-06-04 10:33:00,55.0,-99.9,30.09,NNW,327,11.0,13.0,-999,-99.99,,,-99.99,,2013-06-04 17:33:00,
2013-06-04 10:42:00,55.0,-99.9,30.09,NW,317,11.0,13.0,-999,-99.99,,,-99.99,,2013-06-04 17:42:00,
2013-06-04 10:52:00,56.0,-99.9,30.09,NW,323,9.0,12.0,-999,-99.99,,,-99.99,,2013-06-04 17:52:00,
2013-06-04 11:02:00,56.0,-99.9,30.09,NW,320,11.0,13.0,-999,-99.99,,,-99.99,,2013-06-04 18:02:00,
2013-06-04 11:12:00,56.0,-99.9,30.09,NW,321,12.0,14.0,-999,-99.99,,,-99.99,,2013-06-04 18:12:00,
2013-06-04 11:22:00,56.0,-99.9,30.09,NW,324,11.0,14.0,-999,-99.99,,,-99.99,,2013-06-04 18:22:00,
2013-06-04 11:32:00,57.0,-99.9,30.09,NW,322,13.0,15.0,-999,-99.99,,,-99.99,,2013-06-04 18:32:00,
2013-06-04 11:42:00,57.0,-99.9,30.09,NNW,329,14.0,17.0,-999,-99.99,,,-99.99,,2013-06-04 18:42:00,
2013-06-04 11:53:00,57.0,-99.9,30.09,NNW,338,14.0,17.0,-999,-99.99,,,-99.99,,2013-06-04 18:53:00,
2013-06-04 12:02:00,57.0,-99.9,30.08,NNW,328,14.0,18.0,-999,-99.99,,,-99.99,,2013-06-04 19:02:00,
2013-06-04 12:12:00,57.0,-99.9,30.08,NNW,330,14.0,19.0,-999,-99.99,,,-99.99,,2013-06-04 19:12:00,
2013-06-04 12:22:00,57.0,-99.9,30.08,NNW,331,15.0,18.0,-999,-99.99,,,-99.99,,2013-06-04 19:22:00,
2013-06-04 12:33:00,57.0,-99.9,30.08,NNW,328,16.0,20.0,-999,-99.99,,,-99.99,,2013-06-04 19:33:00,
2013-06-04 12:42:00,58.0,-99.9,30.08,NNW,331,16.0,21.0,-999,-99.99,,,-99.99,,2013-06-04 19:42:00,
2013-06-04 12:52:00,58.0,-99.9,30.07,NNW,332,16.0,20.0,-999,-99.99,,,-99.99,,2013-06-04 19:52:00,
2013-06-04 13:03:00,57.0,-99.9,30.07,NNW,328,17.0,22.0,-999,-99.99,,,-99.99,,2013-06-04 20:03:00,
2013-06-04 13:13:00,57.0,-99.9,30.07,NW,325,19.0,21.0,-999,-99.99,,,-99.99,,2013-06-04 20:13:00,
2013-06-04 13:22:00,57.0,-99.9,30.07,NNW,332,19.0,22.0,-999,-99.99,,,-99.99,,2013-06-04 20:22:00,
2013-06-04 13:32:00,57.0,-99.9,30.06,NNW,328,19.0,23.0,-999,-99.99,,,-99.99,,2013-06-04 20:32:00,
2013-06-04 13:42:00,58.0,-99.9,30.06,NNW,334,19.0,25.0,-999,-99.99,,,-99.99,,2013-06-04 20:42:00,
2013-06-04 13:53:00,58.0,-99.9,30.06,NNW,333,19.0,27.0,-999,-99.99,,,-99.99,,2013-06-04 20:53:00,
2013-06-04 14:02:00,58.0,-99.9,30.06,NNW,341,18.0,26.0,-999,-99.99,,,-99.99,,2013-06-04 21:02:00,
2013-06-04 14:12:00,58.0,-99.9,30.06,NNW,340,19.0,27.0,-999,-99.99,,,-99.99,,2013-06-04 21:12:00,
2013-06-04 14:22:00,58.0,-99.9,30.06,NNW,344,23.0,28.0,-999,-99.99,,,-99.99,,2013-06-04 21:22:00,
2013-06-04 14:33:00,58.0,-99.9,30.06,NNW,335,18.0,23.0,-999,-99.99,,,-99.99,,2013-06-04 21:33:00,
2013-06-04 14:43:00,58.0,-99.9,30.06,NNW,334,21.0,26.0,-999,-99.99,,,-99.99,,2013-06-04 21:43:00,
2013-06-04 14:53:00,59.0,-99.9,30.06,NNW,335,20.0,28.0,-999,-99.99,,,-99.99,,2013-06-04 21:53:00,
2013-06-04 15:02:00,59.0,-99.9,30.06,NNW,335,19.0,24.0,-999,-99.99,,,-99.99,,2013-06-04 22:02:00,
2013-06-04 15:13:00,59.0,-99.9,30.06,NNW,344,19.0,27.0,-999,-99.99,,,-99.99,,2013-06-04 22:13:00,
2013-06-04 15:22:00,60.0,-99.9,30.05,NNW,339,19.0,24.0,-999,-99.99,,,-99.99,,2013-06-04 22:22:00,
2013-06-04 15:33:00,60.0,-99.9,30.05,NNW,342,19.0,23.0,-999,-99.99,,,-99.99,,2013-06-04 22:33:00,
2013-06-04 15:42:00,60.0,-99.9,30.05,NNW,339,18.0,25.0,-999,-99.99,,,-99.99,,2013-06-04 22:42:00,
2013-06-04 15:52:00,62.0,-99.9,30.05,NNW,338,16.0,19.0,-999,-99.99,,,-99.99,,2013-06-04 22:52:00,
2013-06-04 16:02:00,61.0,-99.9,30.04,NNW,328,17.0,20.0,-999,-99.99,,,-99.99,,2013-06-04 23:02:00,
2013-06-04 16:12:00,61.0,-99.9,30.04,NNW,335,16.0,20.0,-999,-99.99,,,-99.99,,2013-06-04 23:12:00,
2013-06-04 16:22:00,60.0,-99.9,30.04,NNW,331,17.0,21.0,-999,-99.99,,,-99.99,,2013-06-04 23:22:00,
2013-06-04 16:32:00,60.0,-99.9,30.04,NNW,333,19.0,23.0,-999,-99.99,,,-99.99,,2013-06-04 23:32:00,
2013-06-04 16:42:00,60.0,-99.9,30.04,NNW,327,18.0,23.0,-999,-99.99,,,-99.99,,2013-06-04 23:42:00,
2013-06-04 16:52:00,60.0,-99.9,30.04,NNW,328,21.0,25.0,-999,-99.99,,,-99.99,,2013-06-04 23:52:00,
2013-06-04 17:02:00,61.0,-99.9,30.04,NNW,336,15.0,21.0,-999,-99.99,,,-99.99,,2013-06-05 00:02:00,
2013-06-04 17:12:00,60.0,-99.9,30.04,NNW,336,18.0,22.0,-999,-99.99,,,-99.99,,2013-06-05 00:12:00,
2013-06-04 17:22:00,60.0,-99.9,30.04,NNW,338,18.0,22.0,-999,-99.99,,,-99.99,,2013-06-05 00:22:00,
2013-06-04 17:33:00,59.0,-99.9,30.03,NNW,334,18.0,25.0,-999,-99.99,,,-99.99,,2013-06-05 00:33:00,
2013-06-04 17:42:00,59.0,-99.9,30.04,NNW,331,20.0,23.0,-999,-99.99,,,-99.99,,2013-06-05 00:42:00,
2013-06-04 17:52:00,59.0,-99.9,30.03,NNW,336,20.0,25.0,-999,-99.99,,,-99.99,,2013-06-05 00:52:00,
2013-06-04 18:02:00,60.0,-99.9,30.03,NNW,333,17.0,24.0,-999,-99.99,,,-99.99,,2013-06-05 01:02:00,
2013-06-04 18:12:00,60.0,-99.9,30.03,NNW,328,17.0,24.0,-999,-99.99,,,-99.99,,2013-06-05 01:12:00,
2013-06-04 18:22:00,59.0,-99.9,30.04,NNW,339,22.0,28.0,-999,-99.99,,,-99.99,,2013-06-05 01:22:00,
2013-06-04 18:32:00,59.0,-99.9,30.03,NNW,337,22.0,27.0,-999,-99.99,,,-99.99,,2013-06-05 01:32:00,
2013-06-04 18:42:00,59.0,-99.9,30.03,NNW,339,22.0,30.0,-999,-99.99,,,-99.99,,2013-06-05 01:42:00,
2013-06-04 18:52:00,59.0,-99.9,30.03,NNW,330,20.0,26.0,-999,-99.99,,,-99.99,,2013-06-05 01:52:00,
2013-06-04 19:02:00,58.0,-99.9,30.03,NNW,340,21.0,27.0,-999,-99.99,,,-99.99,,2013-06-05 02:02:00,
2013-06-04 19:12:00,58.0,-99.9,30.03,NNW,341,19.0,30.0,-999,-99.99,,,-99.99,,2013-06-05 02:12:00,
2013-06-04 19:22:00,59.0,-99.9,30.03,NNW,336,17.0,23.0,-999,-99.99,,,-99.99,,2013-06-05 02:22:00,
2013-06-04 19:32:00,59.0,-99.9,30.03,NNW,334,17.0,23.0,-999,-99.99,,,-99.99,,2013-06-05 02:32:00,
2013-06-04 19:42:00,59.0,-99.9,30.03,NNW,328,16.0,20.0,-999,-99.99,,,-99.99,,2013-06-05 02:42:00,
2013-06-04 19:52:00,59.0,-99.9,30.03,NNW,327,13.0,18.0,-999,-99.99,,,-99.99,,2013-06-05 02:52:00,
2013-06-04 20:03:00,59.0,-99.9,30.03,NW,324,10.0,13.0,-999,-99.99,,,-99.99,,2013-06-05 03:03:00,
2013-06-04 20:12:00,59.0,-99.9,30.02,NW,311,7.0,11.0,-999,-99.99,,,-99.99,,2013-06-05 03:12:00,
2013-06-04 20:22:00,59.0,-99.9,30.02,NW,312,6.0,12.0,-999,-99.99,,,-99.99,,2013-06-05 03:22:00,
2013-06-04 20:33:00,59.0,-99.9,30.02,NW,309,8.0,11.0,-999,-99.99,,,-99.99,,2013-06-05 03:33:00,
2013-06-04 20:43:00,58.0,-99.9,30.03,NNW,329,10.0,13.0,-999,-99.99,,,-99.99,,2013-06-05 03:43:00,
2013-06-04 20:53:00,57.0,-99.9,30.03,NNW,335,13.0,18.0,-999,-99.99,,,-99.99,,2013-06-05 03:53:00,
2013-06-04 21:03:00,57.0,-99.9,30.03,NNW,335,19.0,22.0,-999,-99.99,,,-99.99,,2013-06-05 04:03:00,
2013-06-04 21:13:00,57.0,-99.9,30.03,NNW,338,15.0,18.0,-999,-99.99,,,-99.99,,2013-06-05 04:13:00,
2013-06-04 21:23:00,57.0,-99.9,30.03,NNW,336,14.0,20.0,-999,-99.99,,,-99.99,,2013-06-05 04:23:00,
2013-06-04 21:33:00,57.0,-99.9,30.03,NNW,337,15.0,19.0,-999,-99.99,,,-99.99,,2013-06-05 04:33:00,
2013-06-04 21:43:00,56.0,-99.9,30.04,NNW,340,13.0,17.0,-999,-99.99,,,-99.99,,2013-06-05 04:43:00,
2013-06-04 21:53:00,57.0,-99.9,30.04,NNW,344,9.0,16.0,-999,-99.99,,,-99.99,,2013-06-05 04:53:00,
2013-06-04 22:02:00,57.0,-99.9,30.05,North,351,9.0,15.0,-999,-99.99,,,-99.99,,2013-06-05 05:02:00,
2013-06-04 22:12:00,57.0,-99.9,30.05,NNW,343,9.0,13.0,-999,-99.99,,,-99.99,,2013-06-05 05:12:00,
2013-06-04 22:23:00,57.0,-99.9,30.05,NNW,331,10.0,13.0,-999,-99.99,,,-99.99,,2013-06-05 05:23:00,
2013-06-04 22:32:00,56.0,-99.9,30.05,NW,324,7.0,9.0,-999,-99.99,,,-99.99,,2013-06-05 05:32:00,
2013-06-04 22:42:00,56.0,-99.9,30.05,NNW,343,8.0,11.0,-999,-99.99,,,-99.99,,2013-06-05 05:42:00,
2013-06-04 22:53:00,56.0,-99.9,30.05,NNW,331,8.0,11.0,-999,-99.99,,,-99.99,,2013-06-05 05:53:00,
2013-06-04 23:02:00,56.0,-99.9,30.05,NNW,340,7.0,8.0,-999,-99.99,,,-99.99,,2013-06-05 06:02:00,
2013-06-04 23:12:00,56.0,-99.9,30.05,NNW,328,7.0,9.0,-999,-99.99,,,-99.99,,2013-06-05 06:12:00,
2013-06-04 23:22:00,56.0,-99.9,30.05,NNW,332,7.0,9.0,-999,-99.99,,,-99.99,,2013-06-05 06:22:00,
2013-06-04 23:32:00,55.0,-99.9,30.05,NNW,337,8.0,9.0,-999,-99.99,,,-99.99,,2013-06-05 06:32:00,
2013-06-04 23:42:00,55.0,-99.9,30.05,North,4,2.0,6.0,-999,-99.99,,,-99.99,,2013-06-05 06:42:00,
2013-06-04 23:52:00,55.0,-99.9,30.05,North,359,2.0,4.0,-999,-99.99,,,-99.99,,2013-06-05 06:52:00,